sensor_id;sensor_type;location;lat;lon;timestamp;temperature;humidity
8152;DHT22;4117;53.622;9.958;2024-01-30T00:01:53;3.00;99.90
8152;DHT22;4117;53.622;9.958;2024-01-30T00:04:20;3.00;99.90
8152;DHT22;4117;53.622;9.958;2024-01-30T00:06:47;3.00;99.90
8152;DHT22;4117;53.622;9.958;2024-01-30T00:09:16;3.00;99.90
8152;DHT22;4117;53.622;9.958;2024-01-30T00:11:43;2.90;99.90
8152;DHT22;4117;53.622;9.958;2024-01-30T00:14:10;2.90;99.90
8152;DHT22;4117;53.622;9.958;2024-01-30T00:16:37;2.90;99.90
8152;DHT22;4117;53.622;9.958;2024-01-30T00:19:04;2.90;99.90
8152;DHT22;4117;53.622;9.958;2024-01-30T00:21:30;2.80;99.90
8152;DHT22;4117;53.622;9.958;2024-01-30T00:23:57;2.90;99.90
8152;DHT22;4117;53.622;9.958;2024-01-30T00:26:25;2.80;99.90
8152;DHT22;4117;53.622;9.958;2024-01-30T00:28:52;2.80;99.90
8152;DHT22;4117;53.622;9.958;2024-01-30T00:31:19;2.80;99.90
8152;DHT22;4117;53.622;9.958;2024-01-30T00:33:46;2.80;99.90
8152;DHT22;4117;53.622;9.958;2024-01-30T00:36:13;2.80;99.90
8152;DHT22;4117;53.622;9.958;2024-01-30T00:38:40;2.70;99.90
8152;DHT22;4117;53.622;9.958;2024-01-30T00:41:08;2.70;99.90
8152;DHT22;4117;53.622;9.958;2024-01-30T00:43:37;2.70;99.90
8152;DHT22;4117;53.622;9.958;2024-01-30T00:46:04;2.70;99.90
8152;DHT22;4117;53.622;9.958;2024-01-30T00:48:31;2.70;99.90
8152;DHT22;4117;53.622;9.958;2024-01-30T00:50:58;2.60;99.90
8152;DHT22;4117;53.622;9.958;2024-01-30T00:53:25;2.60;99.90
8152;DHT22;4117;53.622;9.958;2024-01-30T00:55:52;2.60;99.90
8152;DHT22;4117;53.622;9.958;2024-01-30T00:58:19;2.60;99.90
8152;DHT22;4117;53.622;9.958;2024-01-30T01:00:47;2.60;99.90
8152;DHT22;4117;53.622;9.958;2024-01-30T01:03:14;2.60;99.90
8152;DHT22;4117;53.622;9.958;2024-01-30T01:05:41;2.60;99.90
8152;DHT22;4117;53.622;9.958;2024-01-30T01:08:08;2.50;99.90
8152;DHT22;4117;53.622;9.958;2024-01-30T01:10:35;2.60;99.90
8152;DHT22;4117;53.622;9.958;2024-01-30T01:13:02;2.60;99.90
8152;DHT22;4117;53.622;9.958;2024-01-30T01:15:29;2.60;99.90
8152;DHT22;4117;53.622;9.958;2024-01-30T01:17:58;2.50;99.90
8152;DHT22;4117;53.622;9.958;2024-01-30T01:20:25;2.50;99.90
8152;DHT22;4117;53.622;9.958;2024-01-30T01:22:52;2.50;99.90
8152;DHT22;4117;53.622;9.958;2024-01-30T01:25:19;2.50;99.90
8152;DHT22;4117;53.622;9.958;2024-01-30T01:27:46;2.50;99.90
8152;DHT22;4117;53.622;9.958;2024-01-30T01:30:17;2.50;99.90
8152;DHT22;4117;53.622;9.958;2024-01-30T01:32:47;2.50;99.90
8152;DHT22;4117;53.622;9.958;2024-01-30T01:35:21;2.50;99.90
8152;DHT22;4117;53.622;9.958;2024-01-30T01:37:49;2.50;99.90
8152;DHT22;4117;53.622;9.958;2024-01-30T01:40:21;2.50;99.90
8152;DHT22;4117;53.622;9.958;2024-01-30T01:42:49;2.50;99.90
8152;DHT22;4117;53.622;9.958;2024-01-30T01:45:17;2.50;99.90
8152;DHT22;4117;53.622;9.958;2024-01-30T01:47:44;2.50;99.90
8152;DHT22;4117;53.622;9.958;2024-01-30T01:50:12;2.50;99.90
8152;DHT22;4117;53.622;9.958;2024-01-30T01:52:41;2.50;99.90
8152;DHT22;4117;53.622;9.958;2024-01-30T01:55:09;2.50;99.90
8152;DHT22;4117;53.622;9.958;2024-01-30T01:57:36;2.50;99.90
8152;DHT22;4117;53.622;9.958;2024-01-30T02:00:04;2.50;99.90
8152;DHT22;4117;53.622;9.958;2024-01-30T02:02:35;2.60;99.90
8152;DHT22;4117;53.622;9.958;2024-01-30T02:05:03;2.60;99.90
8152;DHT22;4117;53.622;9.958;2024-01-30T02:07:30;2.50;99.90
8152;DHT22;4117;53.622;9.958;2024-01-30T02:09:59;2.50;99.90
8152;DHT22;4117;53.622;9.958;2024-01-30T02:12:26;2.50;99.90
8152;DHT22;4117;53.622;9.958;2024-01-30T02:14:53;2.50;99.90
8152;DHT22;4117;53.622;9.958;2024-01-30T02:17:20;2.60;99.90
8152;DHT22;4117;53.622;9.958;2024-01-30T02:19:48;2.60;99.90
8152;DHT22;4117;53.622;9.958;2024-01-30T02:22:17;2.60;99.90
8152;DHT22;4117;53.622;9.958;2024-01-30T02:24:45;2.60;99.90
8152;DHT22;4117;53.622;9.958;2024-01-30T02:27:12;2.60;99.90
8152;DHT22;4117;53.622;9.958;2024-01-30T02:29:38;2.60;99.90
8152;DHT22;4117;53.622;9.958;2024-01-30T02:32:06;2.50;99.90
8152;DHT22;4117;53.622;9.958;2024-01-30T02:34:33;2.60;99.90
8152;DHT22;4117;53.622;9.958;2024-01-30T02:37:00;2.60;99.90
8152;DHT22;4117;53.622;9.958;2024-01-30T02:39:29;2.60;99.90
8152;DHT22;4117;53.622;9.958;2024-01-30T02:41:56;2.60;99.90
8152;DHT22;4117;53.622;9.958;2024-01-30T02:44:23;2.60;99.90
8152;DHT22;4117;53.622;9.958;2024-01-30T02:46:50;2.60;99.90
8152;DHT22;4117;53.622;9.958;2024-01-30T02:49:19;2.60;99.90
8152;DHT22;4117;53.622;9.958;2024-01-30T02:51:46;2.60;99.90
8152;DHT22;4117;53.622;9.958;2024-01-30T02:54:13;2.60;99.90
8152;DHT22;4117;53.622;9.958;2024-01-30T02:56:42;2.60;99.90
8152;DHT22;4117;53.622;9.958;2024-01-30T02:59:09;2.60;99.90
8152;DHT22;4117;53.622;9.958;2024-01-30T03:04:11;2.60;99.90
8152;DHT22;4117;53.622;9.958;2024-01-30T03:06:38;2.60;99.90
8152;DHT22;4117;53.622;9.958;2024-01-30T03:09:05;2.60;99.90
8152;DHT22;4117;53.622;9.958;2024-01-30T03:11:32;2.50;99.90
8152;DHT22;4117;53.622;9.958;2024-01-30T03:14:00;2.50;99.90
8152;DHT22;4117;53.622;9.958;2024-01-30T03:16:27;2.50;99.90
8152;DHT22;4117;53.622;9.958;2024-01-30T03:18:54;2.50;99.90
8152;DHT22;4117;53.622;9.958;2024-01-30T03:21:21;2.50;99.90
8152;DHT22;4117;53.622;9.958;2024-01-30T03:23:48;2.50;99.90
8152;DHT22;4117;53.622;9.958;2024-01-30T03:26:15;2.50;99.90
8152;DHT22;4117;53.622;9.958;2024-01-30T03:28:42;2.50;99.90
8152;DHT22;4117;53.622;9.958;2024-01-30T03:31:10;2.50;99.90
8152;DHT22;4117;53.622;9.958;2024-01-30T03:33:37;2.50;99.90
8152;DHT22;4117;53.622;9.958;2024-01-30T03:36:05;2.50;99.90
8152;DHT22;4117;53.622;9.958;2024-01-30T03:38:32;2.40;99.90
8152;DHT22;4117;53.622;9.958;2024-01-30T03:40:59;2.40;99.90
8152;DHT22;4117;53.622;9.958;2024-01-30T03:43:26;2.40;99.90
8152;DHT22;4117;53.622;9.958;2024-01-30T03:45:53;2.40;99.90
8152;DHT22;4117;53.622;9.958;2024-01-30T03:48:22;2.40;99.90
8152;DHT22;4117;53.622;9.958;2024-01-30T03:50:49;2.40;99.90
8152;DHT22;4117;53.622;9.958;2024-01-30T03:53:16;2.40;99.90
8152;DHT22;4117;53.622;9.958;2024-01-30T03:55:43;2.40;99.90
8152;DHT22;4117;53.622;9.958;2024-01-30T03:58:10;2.40;99.90
8152;DHT22;4117;53.622;9.958;2024-01-30T04:00:36;2.40;99.90
8152;DHT22;4117;53.622;9.958;2024-01-30T04:03:04;2.40;99.90
8152;DHT22;4117;53.622;9.958;2024-01-30T04:05:33;2.40;99.90
8152;DHT22;4117;53.622;9.958;2024-01-30T04:08:00;2.50;99.90
8152;DHT22;4117;53.622;9.958;2024-01-30T04:10:27;2.40;99.90
8152;DHT22;4117;53.622;9.958;2024-01-30T04:12:54;2.50;99.90
8152;DHT22;4117;53.622;9.958;2024-01-30T04:15:21;2.40;99.90
8152;DHT22;4117;53.622;9.958;2024-01-30T04:17:48;2.40;99.90
8152;DHT22;4117;53.622;9.958;2024-01-30T04:20:15;2.40;99.90
8152;DHT22;4117;53.622;9.958;2024-01-30T04:22:44;2.40;99.90
8152;DHT22;4117;53.622;9.958;2024-01-30T04:25:12;2.40;99.90
8152;DHT22;4117;53.622;9.958;2024-01-30T04:27:39;2.40;99.90
8152;DHT22;4117;53.622;9.958;2024-01-30T04:30:07;2.40;99.90
8152;DHT22;4117;53.622;9.958;2024-01-30T04:32:35;2.40;99.90
8152;DHT22;4117;53.622;9.958;2024-01-30T04:35:02;2.40;99.90
8152;DHT22;4117;53.622;9.958;2024-01-30T04:37:29;2.40;99.90
8152;DHT22;4117;53.622;9.958;2024-01-30T04:39:58;2.30;99.90
8152;DHT22;4117;53.622;9.958;2024-01-30T04:42:25;2.30;99.90
8152;DHT22;4117;53.622;9.958;2024-01-30T04:44:52;2.30;99.90
8152;DHT22;4117;53.622;9.958;2024-01-30T04:47:19;2.30;99.90
8152;DHT22;4117;53.622;9.958;2024-01-30T04:49:46;2.20;99.90
8152;DHT22;4117;53.622;9.958;2024-01-30T04:52:13;2.20;99.90
8152;DHT22;4117;53.622;9.958;2024-01-30T04:54:40;2.20;99.90
8152;DHT22;4117;53.622;9.958;2024-01-30T04:57:08;2.20;99.90
8152;DHT22;4117;53.622;9.958;2024-01-30T04:59:37;2.20;99.90
8152;DHT22;4117;53.622;9.958;2024-01-30T05:02:04;2.10;99.90
8152;DHT22;4117;53.622;9.958;2024-01-30T05:04:32;2.10;99.90
8152;DHT22;4117;53.622;9.958;2024-01-30T05:06:59;2.10;99.90
8152;DHT22;4117;53.622;9.958;2024-01-30T05:09:26;2.10;99.90
8152;DHT22;4117;53.622;9.958;2024-01-30T05:11:53;2.10;99.90
8152;DHT22;4117;53.622;9.958;2024-01-30T05:14:22;2.10;99.90
8152;DHT22;4117;53.622;9.958;2024-01-30T05:16:49;2.10;99.90
8152;DHT22;4117;53.622;9.958;2024-01-30T05:19:16;2.10;99.90
8152;DHT22;4117;53.622;9.958;2024-01-30T05:21:43;2.10;99.90
8152;DHT22;4117;53.622;9.958;2024-01-30T05:24:10;2.20;99.90
8152;DHT22;4117;53.622;9.958;2024-01-30T05:26:38;2.20;99.90
8152;DHT22;4117;53.622;9.958;2024-01-30T05:29:05;2.20;99.90
8152;DHT22;4117;53.622;9.958;2024-01-30T05:31:34;2.20;99.90
8152;DHT22;4117;53.622;9.958;2024-01-30T05:34:01;2.20;99.90
8152;DHT22;4117;53.622;9.958;2024-01-30T05:36:28;2.20;99.90
8152;DHT22;4117;53.622;9.958;2024-01-30T05:38:56;2.20;99.90
8152;DHT22;4117;53.622;9.958;2024-01-30T05:41:23;2.20;99.90
8152;DHT22;4117;53.622;9.958;2024-01-30T05:43:50;2.20;99.90
8152;DHT22;4117;53.622;9.958;2024-01-30T05:46:19;2.20;99.90
8152;DHT22;4117;53.622;9.958;2024-01-30T05:48:48;2.20;99.90
8152;DHT22;4117;53.622;9.958;2024-01-30T05:51:14;2.20;99.90
8152;DHT22;4117;53.622;9.958;2024-01-30T05:53:41;2.20;99.90
8152;DHT22;4117;53.622;9.958;2024-01-30T05:56:08;2.20;99.90
8152;DHT22;4117;53.622;9.958;2024-01-30T05:58:35;2.20;99.90
8152;DHT22;4117;53.622;9.958;2024-01-30T06:01:03;2.20;99.90
8152;DHT22;4117;53.622;9.958;2024-01-30T06:03:33;2.20;99.90
8152;DHT22;4117;53.622;9.958;2024-01-30T06:06:01;2.20;99.90
8152;DHT22;4117;53.622;9.958;2024-01-30T06:08:28;2.20;99.90
8152;DHT22;4117;53.622;9.958;2024-01-30T06:10:55;2.20;99.90
8152;DHT22;4117;53.622;9.958;2024-01-30T06:13:22;2.20;99.90
8152;DHT22;4117;53.622;9.958;2024-01-30T06:15:49;2.20;99.90
8152;DHT22;4117;53.622;9.958;2024-01-30T06:18:16;2.30;99.90
8152;DHT22;4117;53.622;9.958;2024-01-30T06:20:43;2.30;99.90
8152;DHT22;4117;53.622;9.958;2024-01-30T06:23:11;2.30;99.90
8152;DHT22;4117;53.622;9.958;2024-01-30T06:25:38;2.40;99.90
8152;DHT22;4117;53.622;9.958;2024-01-30T06:28:05;2.40;99.90
8152;DHT22;4117;53.622;9.958;2024-01-30T06:30:32;2.40;99.90
8152;DHT22;4117;53.622;9.958;2024-01-30T06:32:59;2.50;99.90
8152;DHT22;4117;53.622;9.958;2024-01-30T06:35:26;2.50;99.90
8152;DHT22;4117;53.622;9.958;2024-01-30T06:37:54;2.50;99.90
8152;DHT22;4117;53.622;9.958;2024-01-30T06:40:22;2.60;99.90
8152;DHT22;4117;53.622;9.958;2024-01-30T06:42:50;2.60;99.90
8152;DHT22;4117;53.622;9.958;2024-01-30T06:45:17;2.60;99.90
8152;DHT22;4117;53.622;9.958;2024-01-30T06:47:44;2.60;99.90
8152;DHT22;4117;53.622;9.958;2024-01-30T06:50:10;2.70;99.90
8152;DHT22;4117;53.622;9.958;2024-01-30T06:52:37;2.70;99.90
8152;DHT22;4117;53.622;9.958;2024-01-30T06:55:05;2.70;99.90
8152;DHT22;4117;53.622;9.958;2024-01-30T06:57:33;2.70;99.90
8152;DHT22;4117;53.622;9.958;2024-01-30T07:00:00;2.70;99.90
8152;DHT22;4117;53.622;9.958;2024-01-30T07:02:27;2.70;99.90
8152;DHT22;4117;53.622;9.958;2024-01-30T07:04:54;2.70;99.90
8152;DHT22;4117;53.622;9.958;2024-01-30T07:07:21;2.70;99.90
8152;DHT22;4117;53.622;9.958;2024-01-30T07:09:48;2.70;99.90
8152;DHT22;4117;53.622;9.958;2024-01-30T07:12:18;2.80;99.90
8152;DHT22;4117;53.622;9.958;2024-01-30T07:14:46;2.70;99.90
8152;DHT22;4117;53.622;9.958;2024-01-30T07:17:16;2.70;99.90
8152;DHT22;4117;53.622;9.958;2024-01-30T07:19:43;2.70;99.90
8152;DHT22;4117;53.622;9.958;2024-01-30T07:22:10;2.70;99.90
8152;DHT22;4117;53.622;9.958;2024-01-30T07:24:41;2.70;99.90
8152;DHT22;4117;53.622;9.958;2024-01-30T07:27:10;2.70;99.90
8152;DHT22;4117;53.622;9.958;2024-01-30T07:29:37;2.70;99.90
8152;DHT22;4117;53.622;9.958;2024-01-30T07:32:05;2.70;99.90
8152;DHT22;4117;53.622;9.958;2024-01-30T07:34:32;2.70;99.90
8152;DHT22;4117;53.622;9.958;2024-01-30T07:36:59;2.70;99.90
8152;DHT22;4117;53.622;9.958;2024-01-30T07:39:26;2.70;99.90
8152;DHT22;4117;53.622;9.958;2024-01-30T07:41:53;2.70;99.90
8152;DHT22;4117;53.622;9.958;2024-01-30T07:44:20;2.70;99.90
8152;DHT22;4117;53.622;9.958;2024-01-30T07:46:47;2.70;99.90
8152;DHT22;4117;53.622;9.958;2024-01-30T07:49:15;2.70;99.90
8152;DHT22;4117;53.622;9.958;2024-01-30T07:51:42;2.80;99.90
8152;DHT22;4117;53.622;9.958;2024-01-30T07:54:13;2.80;99.90
8152;DHT22;4117;53.622;9.958;2024-01-30T08:03:24;2.80;99.90
8152;DHT22;4117;53.622;9.958;2024-01-30T08:05:53;2.90;99.90
8152;DHT22;4117;53.622;9.958;2024-01-30T08:08:20;2.90;99.90
8152;DHT22;4117;53.622;9.958;2024-01-30T08:10:47;3.00;99.90
8152;DHT22;4117;53.622;9.958;2024-01-30T08:13:14;3.00;99.90
8152;DHT22;4117;53.622;9.958;2024-01-30T08:15:41;3.10;99.90
8152;DHT22;4117;53.622;9.958;2024-01-30T08:18:08;3.10;99.90
8152;DHT22;4117;53.622;9.958;2024-01-30T08:20:35;3.20;99.90
8152;DHT22;4117;53.622;9.958;2024-01-30T08:23:04;3.20;99.90
8152;DHT22;4117;53.622;9.958;2024-01-30T08:25:31;3.30;1.00
8152;DHT22;4117;53.622;9.958;2024-01-30T08:27:57;3.40;1.00
8152;DHT22;4117;53.622;9.958;2024-01-30T08:30:25;3.50;1.00
8152;DHT22;4117;53.622;9.958;2024-01-30T08:32:52;3.70;1.00
8152;DHT22;4117;53.622;9.958;2024-01-30T08:35:19;3.80;1.00
8152;DHT22;4117;53.622;9.958;2024-01-30T08:37:46;3.80;1.00
8152;DHT22;4117;53.622;9.958;2024-01-30T08:40:14;4.00;1.00
8152;DHT22;4117;53.622;9.958;2024-01-30T08:42:41;4.00;1.00
8152;DHT22;4117;53.622;9.958;2024-01-30T08:45:09;4.10;1.00
8152;DHT22;4117;53.622;9.958;2024-01-30T08:47:36;4.20;1.00
8152;DHT22;4117;53.622;9.958;2024-01-30T08:50:04;4.20;1.00
8152;DHT22;4117;53.622;9.958;2024-01-30T08:52:31;4.30;1.00
8152;DHT22;4117;53.622;9.958;2024-01-30T08:54:59;4.40;1.00
8152;DHT22;4117;53.622;9.958;2024-01-30T08:57:28;4.40;1.00
8152;DHT22;4117;53.622;9.958;2024-01-30T08:59:56;4.50;1.00
8152;DHT22;4117;53.622;9.958;2024-01-30T09:02:23;4.50;1.00
8152;DHT22;4117;53.622;9.958;2024-01-30T09:04:50;4.50;1.00
8152;DHT22;4117;53.622;9.958;2024-01-30T09:07:17;4.60;1.00
8152;DHT22;4117;53.622;9.958;2024-01-30T09:09:44;4.70;1.00
8152;DHT22;4117;53.622;9.958;2024-01-30T09:12:11;4.70;1.00
8152;DHT22;4117;53.622;9.958;2024-01-30T09:14:40;4.70;1.00
8152;DHT22;4117;53.622;9.958;2024-01-30T09:17:07;4.80;1.00
8152;DHT22;4117;53.622;9.958;2024-01-30T09:19:34;4.80;1.00
8152;DHT22;4117;53.622;9.958;2024-01-30T09:22:02;4.90;1.00
8152;DHT22;4117;53.622;9.958;2024-01-30T09:24:29;4.90;1.00
8152;DHT22;4117;53.622;9.958;2024-01-30T09:26:58;5.00;1.00
8152;DHT22;4117;53.622;9.958;2024-01-30T09:29:25;5.00;1.00
8152;DHT22;4117;53.622;9.958;2024-01-30T09:31:54;5.10;1.00
8152;DHT22;4117;53.622;9.958;2024-01-30T09:34:21;5.20;1.00
8152;DHT22;4117;53.622;9.958;2024-01-30T09:36:48;5.30;1.00
8152;DHT22;4117;53.622;9.958;2024-01-30T09:39:15;5.30;1.00
8152;DHT22;4117;53.622;9.958;2024-01-30T09:41:48;5.30;1.00
8152;DHT22;4117;53.622;9.958;2024-01-30T09:44:16;5.40;1.00
8152;DHT22;4117;53.622;9.958;2024-01-30T09:46:44;5.40;1.00
8152;DHT22;4117;53.622;9.958;2024-01-30T09:49:14;5.50;1.00
8152;DHT22;4117;53.622;9.958;2024-01-30T09:51:43;5.50;1.00
8152;DHT22;4117;53.622;9.958;2024-01-30T09:54:21;5.50;1.00
8152;DHT22;4117;53.622;9.958;2024-01-30T09:56:48;5.70;1.00
8152;DHT22;4117;53.622;9.958;2024-01-30T09:59:15;5.70;1.00
8152;DHT22;4117;53.622;9.958;2024-01-30T10:01:42;5.80;1.00
8152;DHT22;4117;53.622;9.958;2024-01-30T10:04:10;5.90;1.00
8152;DHT22;4117;53.622;9.958;2024-01-30T10:06:40;5.90;1.00
8152;DHT22;4117;53.622;9.958;2024-01-30T10:09:07;5.90;1.00
8152;DHT22;4117;53.622;9.958;2024-01-30T10:11:35;6.00;1.00
8152;DHT22;4117;53.622;9.958;2024-01-30T10:14:03;6.10;1.00
8152;DHT22;4117;53.622;9.958;2024-01-30T10:16:29;6.10;1.00
8152;DHT22;4117;53.622;9.958;2024-01-30T10:18:56;6.10;1.00
8152;DHT22;4117;53.622;9.958;2024-01-30T10:21:23;6.20;1.00
8152;DHT22;4117;53.622;9.958;2024-01-30T10:23:52;6.20;1.00
8152;DHT22;4117;53.622;9.958;2024-01-30T10:26:19;6.30;1.00
8152;DHT22;4117;53.622;9.958;2024-01-30T10:28:48;6.40;1.00
8152;DHT22;4117;53.622;9.958;2024-01-30T10:31:17;6.40;1.00
8152;DHT22;4117;53.622;9.958;2024-01-30T10:33:44;6.40;1.00
8152;DHT22;4117;53.622;9.958;2024-01-30T10:36:13;6.50;1.00
8152;DHT22;4117;53.622;9.958;2024-01-30T10:38:42;6.50;1.00
8152;DHT22;4117;53.622;9.958;2024-01-30T10:41:15;6.60;1.00
8152;DHT22;4117;53.622;9.958;2024-01-30T10:43:57;6.60;1.00
8152;DHT22;4117;53.622;9.958;2024-01-30T10:46:31;6.70;1.00
8152;DHT22;4117;53.622;9.958;2024-01-30T10:48:59;6.70;1.00
8152;DHT22;4117;53.622;9.958;2024-01-30T10:51:27;6.70;1.00
8152;DHT22;4117;53.622;9.958;2024-01-30T10:53:56;6.80;1.00
8152;DHT22;4117;53.622;9.958;2024-01-30T10:56:25;6.80;1.00
8152;DHT22;4117;53.622;9.958;2024-01-30T10:58:53;6.80;1.00
8152;DHT22;4117;53.622;9.958;2024-01-30T11:01:22;6.90;99.90
8152;DHT22;4117;53.622;9.958;2024-01-30T11:03:50;6.90;99.90
8152;DHT22;4117;53.622;9.958;2024-01-30T11:06:17;7.00;99.90
8152;DHT22;4117;53.622;9.958;2024-01-30T11:08:45;7.10;99.90
8152;DHT22;4117;53.622;9.958;2024-01-30T11:11:12;7.10;99.90
8152;DHT22;4117;53.622;9.958;2024-01-30T11:13:40;7.10;99.90
8152;DHT22;4117;53.622;9.958;2024-01-30T11:16:11;7.20;99.90
8152;DHT22;4117;53.622;9.958;2024-01-30T11:18:39;7.30;99.90
8152;DHT22;4117;53.622;9.958;2024-01-30T11:21:06;7.30;99.90
8152;DHT22;4117;53.622;9.958;2024-01-30T11:23:34;7.40;99.90
8152;DHT22;4117;53.622;9.958;2024-01-30T11:26:04;7.40;99.90
8152;DHT22;4117;53.622;9.958;2024-01-30T11:28:33;7.50;99.90
8152;DHT22;4117;53.622;9.958;2024-01-30T11:31:06;7.50;99.90
8152;DHT22;4117;53.622;9.958;2024-01-30T11:33:33;7.50;99.90
8152;DHT22;4117;53.622;9.958;2024-01-30T11:36:01;7.50;99.90
8152;DHT22;4117;53.622;9.958;2024-01-30T11:38:28;7.60;99.90
8152;DHT22;4117;53.622;9.958;2024-01-30T11:40:56;7.60;99.90
8152;DHT22;4117;53.622;9.958;2024-01-30T11:43:23;7.60;99.90
8152;DHT22;4117;53.622;9.958;2024-01-30T11:45:51;7.60;99.90
8152;DHT22;4117;53.622;9.958;2024-01-30T11:48:20;7.70;99.90
8152;DHT22;4117;53.622;9.958;2024-01-30T11:50:47;7.70;99.90
8152;DHT22;4117;53.622;9.958;2024-01-30T11:53:14;7.70;99.90
8152;DHT22;4117;53.622;9.958;2024-01-30T11:55:50;7.70;99.90
8152;DHT22;4117;53.622;9.958;2024-01-30T11:58:17;7.70;99.90
8152;DHT22;4117;53.622;9.958;2024-01-30T12:00:53;7.80;99.90
8152;DHT22;4117;53.622;9.958;2024-01-30T12:03:22;7.80;99.90
8152;DHT22;4117;53.622;9.958;2024-01-30T12:05:55;7.90;99.90
8152;DHT22;4117;53.622;9.958;2024-01-30T12:08:22;7.90;99.90
8152;DHT22;4117;53.622;9.958;2024-01-30T12:10:55;8.00;99.90
8152;DHT22;4117;53.622;9.958;2024-01-30T12:13:23;8.10;99.90
8152;DHT22;4117;53.622;9.958;2024-01-30T12:15:50;8.10;99.90
8152;DHT22;4117;53.622;9.958;2024-01-30T12:18:19;8.10;99.90
8152;DHT22;4117;53.622;9.958;2024-01-30T12:20:57;8.20;99.90
8152;DHT22;4117;53.622;9.958;2024-01-30T12:23:24;8.20;99.90
8152;DHT22;4117;53.622;9.958;2024-01-30T12:25:52;8.20;99.90
8152;DHT22;4117;53.622;9.958;2024-01-30T12:28:19;8.30;99.90
8152;DHT22;4117;53.622;9.958;2024-01-30T12:30:46;8.30;99.90
8152;DHT22;4117;53.622;9.958;2024-01-30T12:33:16;8.30;99.90
8152;DHT22;4117;53.622;9.958;2024-01-30T12:35:47;8.40;99.90
8152;DHT22;4117;53.622;9.958;2024-01-30T12:38:14;8.40;99.90
8152;DHT22;4117;53.622;9.958;2024-01-30T12:40:41;8.40;99.90
8152;DHT22;4117;53.622;9.958;2024-01-30T12:43:14;8.40;99.90
8152;DHT22;4117;53.622;9.958;2024-01-30T12:45:42;8.40;99.90
8152;DHT22;4117;53.622;9.958;2024-01-30T12:48:09;8.50;99.90
8152;DHT22;4117;53.622;9.958;2024-01-30T12:50:36;8.50;99.90
8152;DHT22;4117;53.622;9.958;2024-01-30T12:53:04;8.50;99.90
8152;DHT22;4117;53.622;9.958;2024-01-30T12:55:31;8.60;99.90
8152;DHT22;4117;53.622;9.958;2024-01-30T12:57:58;8.60;99.90
8152;DHT22;4117;53.622;9.958;2024-01-30T13:00:25;8.60;99.90
8152;DHT22;4117;53.622;9.958;2024-01-30T13:02:52;8.60;99.90
8152;DHT22;4117;53.622;9.958;2024-01-30T13:05:19;8.60;99.90
8152;DHT22;4117;53.622;9.958;2024-01-30T13:07:46;8.60;99.90
8152;DHT22;4117;53.622;9.958;2024-01-30T13:10:14;8.70;99.90
8152;DHT22;4117;53.622;9.958;2024-01-30T13:12:41;8.60;99.90
8152;DHT22;4117;53.622;9.958;2024-01-30T13:15:09;8.60;99.90
8152;DHT22;4117;53.622;9.958;2024-01-30T13:17:36;8.60;99.90
8152;DHT22;4117;53.622;9.958;2024-01-30T13:20:04;8.60;99.90
8152;DHT22;4117;53.622;9.958;2024-01-30T13:22:33;8.70;99.90
8152;DHT22;4117;53.622;9.958;2024-01-30T13:25:00;8.70;99.90
8152;DHT22;4117;53.622;9.958;2024-01-30T13:27:29;8.70;99.90
8152;DHT22;4117;53.622;9.958;2024-01-30T13:29:56;8.70;99.90
8152;DHT22;4117;53.622;9.958;2024-01-30T13:32:22;8.70;99.90
8152;DHT22;4117;53.622;9.958;2024-01-30T13:34:49;8.70;99.90
8152;DHT22;4117;53.622;9.958;2024-01-30T13:37:16;8.70;99.90
8152;DHT22;4117;53.622;9.958;2024-01-30T13:39:43;8.70;99.90
8152;DHT22;4117;53.622;9.958;2024-01-30T13:42:10;8.70;99.90
8152;DHT22;4117;53.622;9.958;2024-01-30T13:44:41;8.70;99.90
8152;DHT22;4117;53.622;9.958;2024-01-30T13:47:09;8.70;99.90
8152;DHT22;4117;53.622;9.958;2024-01-30T13:49:36;8.70;99.90
8152;DHT22;4117;53.622;9.958;2024-01-30T13:52:04;8.70;99.90
8152;DHT22;4117;53.622;9.958;2024-01-30T13:54:31;8.70;99.90
8152;DHT22;4117;53.622;9.958;2024-01-30T13:56:58;8.70;99.90
8152;DHT22;4117;53.622;9.958;2024-01-30T13:59:25;8.70;99.90
8152;DHT22;4117;53.622;9.958;2024-01-30T14:01:53;8.70;99.90
8152;DHT22;4117;53.622;9.958;2024-01-30T14:04:20;8.70;99.90
8152;DHT22;4117;53.622;9.958;2024-01-30T14:06:47;8.70;99.90
8152;DHT22;4117;53.622;9.958;2024-01-30T14:09:14;8.70;99.90
8152;DHT22;4117;53.622;9.958;2024-01-30T14:11:41;8.70;99.90
8152;DHT22;4117;53.622;9.958;2024-01-30T14:14:09;8.70;99.90
8152;DHT22;4117;53.622;9.958;2024-01-30T14:16:36;8.70;99.90
8152;DHT22;4117;53.622;9.958;2024-01-30T14:19:05;8.70;99.90
8152;DHT22;4117;53.622;9.958;2024-01-30T14:21:32;8.70;99.90
8152;DHT22;4117;53.622;9.958;2024-01-30T14:23:59;8.70;99.90
8152;DHT22;4117;53.622;9.958;2024-01-30T14:26:26;8.70;99.90
8152;DHT22;4117;53.622;9.958;2024-01-30T14:28:53;8.80;99.90
8152;DHT22;4117;53.622;9.958;2024-01-30T14:31:21;8.70;99.90
8152;DHT22;4117;53.622;9.958;2024-01-30T14:33:50;8.80;99.90
8152;DHT22;4117;53.622;9.958;2024-01-30T14:36:18;8.80;99.90
8152;DHT22;4117;53.622;9.958;2024-01-30T14:38:46;8.80;99.90
8152;DHT22;4117;53.622;9.958;2024-01-30T14:41:13;8.80;99.90
8152;DHT22;4117;53.622;9.958;2024-01-30T14:43:40;8.80;99.90
8152;DHT22;4117;53.622;9.958;2024-01-30T14:46:07;8.80;99.90
8152;DHT22;4117;53.622;9.958;2024-01-30T14:48:37;8.90;99.90
8152;DHT22;4117;53.622;9.958;2024-01-30T14:51:05;8.90;99.90
8152;DHT22;4117;53.622;9.958;2024-01-30T14:53:36;8.90;99.90
8152;DHT22;4117;53.622;9.958;2024-01-30T14:56:04;8.90;99.90
8152;DHT22;4117;53.622;9.958;2024-01-30T14:58:31;8.90;99.90
8152;DHT22;4117;53.622;9.958;2024-01-30T15:00:58;8.90;99.90
8152;DHT22;4117;53.622;9.958;2024-01-30T15:03:27;8.90;99.90
8152;DHT22;4117;53.622;9.958;2024-01-30T15:05:55;9.00;99.90
8152;DHT22;4117;53.622;9.958;2024-01-30T15:08:22;9.00;99.90
8152;DHT22;4117;53.622;9.958;2024-01-30T15:10:51;9.00;99.90
8152;DHT22;4117;53.622;9.958;2024-01-30T15:13:21;9.00;99.90
8152;DHT22;4117;53.622;9.958;2024-01-30T15:15:53;9.00;99.90
8152;DHT22;4117;53.622;9.958;2024-01-30T15:18:20;9.00;99.90
8152;DHT22;4117;53.622;9.958;2024-01-30T15:20:47;9.00;99.90
8152;DHT22;4117;53.622;9.958;2024-01-30T15:23:14;9.00;99.90
8152;DHT22;4117;53.622;9.958;2024-01-30T15:25:44;9.00;99.90
8152;DHT22;4117;53.622;9.958;2024-01-30T15:28:12;9.00;99.90
8152;DHT22;4117;53.622;9.958;2024-01-30T15:30:40;9.00;99.90
8152;DHT22;4117;53.622;9.958;2024-01-30T15:33:09;9.10;99.90
8152;DHT22;4117;53.622;9.958;2024-01-30T15:35:36;9.00;99.90
8152;DHT22;4117;53.622;9.958;2024-01-30T15:38:04;9.00;99.90
8152;DHT22;4117;53.622;9.958;2024-01-30T15:40:33;9.00;99.90
8152;DHT22;4117;53.622;9.958;2024-01-30T15:43:00;9.00;99.90
8152;DHT22;4117;53.622;9.958;2024-01-30T15:45:29;9.10;99.90
8152;DHT22;4117;53.622;9.958;2024-01-30T15:47:58;9.10;99.90
8152;DHT22;4117;53.622;9.958;2024-01-30T15:50:25;9.00;99.90
8152;DHT22;4117;53.622;9.958;2024-01-30T15:52:51;9.00;99.90
8152;DHT22;4117;53.622;9.958;2024-01-30T15:55:18;9.00;99.90
8152;DHT22;4117;53.622;9.958;2024-01-30T15:57:46;9.10;99.90
8152;DHT22;4117;53.622;9.958;2024-01-30T16:00:14;9.10;99.90
8152;DHT22;4117;53.622;9.958;2024-01-30T16:02:43;9.10;99.90
8152;DHT22;4117;53.622;9.958;2024-01-30T16:05:10;9.00;99.90
8152;DHT22;4117;53.622;9.958;2024-01-30T16:07:37;9.10;99.90
8152;DHT22;4117;53.622;9.958;2024-01-30T16:10:05;9.10;99.90
8152;DHT22;4117;53.622;9.958;2024-01-30T16:12:33;9.00;99.90
8152;DHT22;4117;53.622;9.958;2024-01-30T16:15:01;9.00;99.90
8152;DHT22;4117;53.622;9.958;2024-01-30T16:17:29;9.00;99.90
8152;DHT22;4117;53.622;9.958;2024-01-30T16:19:58;9.00;99.90
8152;DHT22;4117;53.622;9.958;2024-01-30T16:22:25;9.00;99.90
8152;DHT22;4117;53.622;9.958;2024-01-30T16:24:52;9.00;99.90
8152;DHT22;4117;53.622;9.958;2024-01-30T16:27:19;9.00;99.90
8152;DHT22;4117;53.622;9.958;2024-01-30T16:29:46;9.00;99.90
8152;DHT22;4117;53.622;9.958;2024-01-30T16:32:13;9.00;99.90